Time;durP1;ratioP1;P1;durP2;ratioP2;P2;SDS_P1;SDS_P2;PMS_P1;PMS_P2;Temp;Humidity;BMP_temperature;BMP_pressure;BME280_temperature;BME280_humidity;BME280_pressure;Samples;Min_cycle;Max_cycle;Signal;HPM_P1;HPM_P2
2023/05/22 00:00:51;;;;;;;12.90;11.55;;;20.00;99.90;;;;;;6157077;23;20008;-85
2023/05/22 00:03:17;;;;;;;14.35;12.85;;;19.90;99.90;;;;;;6155212;23;20436;-85
2023/05/22 00:05:43;;;;;;;15.32;13.82;;;20.00;99.90;;;;;;6155490;23;20008;-85
2023/05/22 00:08:11;;;;;;;17.05;15.35;;;19.90;99.90;;;;;;6130261;23;20021;-85
2023/05/22 00:10:37;;;;;;;15.98;14.35;;;19.90;99.90;;;;;;6156947;23;20304;-85
2023/05/22 00:13:03;;;;;;;16.42;14.73;;;19.90;99.90;;;;;;6155394;23;20088;-84
2023/05/22 00:15:29;;;;;;;17.45;14.50;;;19.90;99.90;;;;;;6155240;23;20443;-85
2023/05/22 00:17:55;;;;;;;16.88;15.18;;;19.90;99.90;;;;;;6156628;23;20001;-85
2023/05/22 00:20:22;;;;;;;18.38;15.73;;;19.90;99.90;;;;;;6154875;23;20087;-85
2023/05/22 00:22:49;;;;;;;17.20;15.40;;;19.90;99.90;;;;;;6155409;23;20301;-85
2023/05/22 00:25:18;;;;;;;17.83;15.32;;;19.80;99.90;;;;;;6155120;23;20064;-86
2023/05/22 00:27:43;;;;;;;17.67;15.88;;;19.80;99.90;;;;;;6155353;23;20424;-85
2023/05/22 00:30:09;;;;;;;18.02;15.70;;;19.70;99.90;;;;;;6130458;23;20093;-86
2023/05/22 00:32:35;;;;;;;19.88;16.05;;;19.70;99.90;;;;;;6130314;23;20432;-85
2023/05/22 00:35:02;;;;;;;17.45;15.43;;;19.70;99.90;;;;;;6130023;23;20016;-86
2023/05/22 00:37:27;;;;;;;17.40;15.60;;;19.60;99.90;;;;;;6155038;23;20064;-86
2023/05/22 00:39:53;;;;;;;16.83;15.00;;;19.60;99.90;;;;;;6154953;23;20009;-86
2023/05/22 00:42:19;;;;;;;16.63;14.93;;;19.60;99.90;;;;;;6154614;23;20067;-87
2023/05/22 00:44:45;;;;;;;19.35;16.65;;;19.50;99.90;;;;;;6130906;23;20005;-85
2023/05/22 00:47:10;;;;;;;18.38;16.48;;;19.50;99.90;;;;;;6154549;23;20002;-85
2023/05/22 00:49:36;;;;;;;19.98;16.17;;;19.40;99.90;;;;;;6130738;23;20009;-86
2023/05/22 00:52:02;;;;;;;17.92;15.95;;;19.40;99.90;;;;;;6155076;23;20087;-86
2023/05/22 00:54:30;;;;;;;16.67;14.57;;;19.30;99.90;;;;;;6156261;23;20008;-86
2023/05/22 00:56:56;;;;;;;18.17;14.82;;;19.30;99.90;;;;;;6130705;23;20037;-86
2023/05/22 00:59:22;;;;;;;19.40;14.75;;;19.30;99.90;;;;;;6130837;23;20032;-86
2023/05/22 01:01:48;;;;;;;17.05;14.60;;;19.30;99.90;;;;;;6132121;23;20089;-86
2023/05/22 01:04:14;;;;;;;16.20;14.45;;;19.20;99.90;;;;;;6149920;23;19982;-85
2023/05/22 01:06:40;;;;;;;16.42;14.57;;;19.20;99.90;;;;;;6183239;23;20009;-86
2023/05/22 01:09:06;;;;;;;17.40;14.80;;;19.20;99.90;;;;;;6183501;23;20005;-86
2023/05/22 01:11:35;;;;;;;17.10;14.32;;;19.20;99.90;;;;;;6182593;23;20017;-85
2023/05/22 01:14:07;;;;;;;16.33;14.57;;;19.30;99.90;;;;;;6180509;23;20005;-85
2023/05/22 01:17:07;;;;;;;15.57;13.75;;;19.30;99.90;;;;;;6158130;23;20008;-86
2023/05/22 01:20:00;;;;;;;17.40;14.93;;;19.30;99.90;;;;;;6156865;23;20027;-86
2023/05/22 01:23:20;;;;;;;16.17;13.68;;;19.20;99.90;;;;;;6154736;23;20001;-86
2023/05/22 01:25:53;;;;;;;17.27;13.35;;;19.30;99.90;;;;;;6042190;23;20014;-85
2023/05/22 01:28:49;;;;;;;14.75;13.25;;;19.20;99.90;;;;;;6141822;23;20002;-86
2023/05/22 01:31:16;;;;;;;15.10;13.50;;;19.20;99.90;;;;;;6154235;23;20009;-85
2023/05/22 01:33:45;;;;;;;15.60;14.00;;;19.20;99.90;;;;;;6154770;23;20006;-86
2023/05/22 01:36:14;;;;;;;17.75;14.02;;;19.10;99.90;;;;;;6156299;23;20021;-84
2023/05/22 01:38:41;;;;;;;15.95;13.98;;;19.10;99.90;;;;;;6154564;23;20009;-86
2023/05/22 01:41:08;;;;;;;16.75;14.98;;;19.10;99.90;;;;;;6156344;23;20085;-85
2023/05/22 01:43:35;;;;;;;20.23;15.77;;;19.10;99.90;;;;;;6130071;23;20494;-86
2023/05/22 01:46:01;;;;;;;17.13;15.27;;;19.10;99.90;;;;;;6129280;23;20424;-86
2023/05/22 01:48:26;;;;;;;18.25;15.27;;;19.10;99.90;;;;;;6129515;23;20016;-85
2023/05/22 01:50:53;;;;;;;16.48;14.18;;;19.10;99.90;;;;;;6155482;23;20033;-86
2023/05/22 01:53:48;;;;;;;16.00;13.95;;;19.10;99.90;;;;;;6129886;23;20014;-86
2023/05/22 01:56:19;;;;;;;15.70;14.10;;;19.10;99.90;;;;;;6155738;23;19998;-85
2023/05/22 01:59:09;;;;;;;15.07;13.48;;;19.10;99.90;;;;;;6154815;23;20037;-86
2023/05/22 02:01:37;;;;;;;15.07;13.30;;;19.10;99.90;;;;;;6158107;23;20005;-85
2023/05/22 02:04:04;;;;;;;15.85;14.25;;;19.10;99.90;;;;;;6158438;23;20005;-86
2023/05/22 02:06:32;;;;;;;16.27;13.77;;;19.10;99.90;;;;;;6158070;23;20004;-84
2023/05/22 02:09:00;;;;;;;16.95;12.95;;;19.00;99.90;;;;;;6156112;23;20514;-86
2023/05/22 02:11:31;;;;;;;16.98;15.07;;;19.00;99.90;;;;;;6156359;23;20037;-86
2023/05/22 02:13:57;;;;;;;16.52;13.93;;;19.00;99.90;;;;;;6156432;23;20001;-86
2023/05/22 02:16:23;;;;;;;16.42;14.73;;;19.00;99.90;;;;;;6107603;23;20010;-86
2023/05/22 02:18:50;;;;;;;17.80;14.60;;;19.00;99.90;;;;;;6156472;23;20002;-86
2023/05/22 02:21:15;;;;;;;18.02;15.40;;;19.00;99.90;;;;;;6156489;23;20016;-84
2023/05/22 02:23:41;;;;;;;17.65;14.52;;;19.00;99.90;;;;;;6156588;23;20323;-87
2023/05/22 02:26:07;;;;;;;16.55;14.20;;;18.90;99.90;;;;;;6132279;23;20001;-86
2023/05/22 02:28:32;;;;;;;18.95;14.95;;;18.90;99.90;;;;;;6131371;23;20036;-86
2023/05/22 02:30:58;;;;;;;17.92;14.75;;;18.90;99.90;;;;;;6107546;23;20005;-86
2023/05/22 02:33:24;;;;;;;17.52;15.07;;;18.90;99.90;;;;;;6131333;23;20009;-86
2023/05/22 02:35:49;;;;;;;18.33;15.25;;;18.80;99.90;;;;;;6132185;23;20016;-86
2023/05/22 02:38:15;;;;;;;16.83;14.43;;;18.80;99.90;;;;;;6156715;23;20012;-86
2023/05/22 02:40:41;;;;;;;17.95;15.60;;;18.80;99.90;;;;;;6131687;23;20056;-86
2023/05/22 02:43:06;;;;;;;16.30;14.05;;;18.80;99.90;;;;;;6131759;23;20436;-86
2023/05/22 02:45:32;;;;;;;16.27;13.90;;;18.70;99.90;;;;;;6157793;23;20013;-86
2023/05/22 02:48:00;;;;;;;16.58;13.57;;;18.70;99.90;;;;;;6157956;23;20096;-86
2023/05/22 02:50:26;;;;;;;16.80;14.00;;;18.70;99.90;;;;;;6157691;23;20002;-82
2023/05/22 02:52:52;;;;;;;17.02;14.73;;;18.60;99.90;;;;;;6132235;23;20033;-81
2023/05/22 02:55:17;;;;;;;19.45;15.02;;;18.60;99.90;;;;;;6171733;23;19985;-82
2023/05/22 02:57:43;;;;;;;15.98;13.90;;;18.60;99.90;;;;;;6183900;23;20006;-82
2023/05/22 03:00:10;;;;;;;18.25;14.57;;;18.60;99.90;;;;;;6159413;23;20036;-82
2023/05/22 03:02:37;;;;;;;17.38;14.90;;;18.50;99.90;;;;;;6134320;23;20010;-82
2023/05/22 03:05:04;;;;;;;18.45;15.43;;;18.50;99.90;;;;;;6156846;23;20001;-82
2023/05/22 03:07:30;;;;;;;15.98;14.27;;;18.40;99.90;;;;;;6137301;23;20005;-82
2023/05/22 03:09:56;;;;;;;16.65;14.93;;;18.40;99.90;;;;;;6130199;23;20060;-82
2023/05/22 03:12:22;;;;;;;17.20;14.55;;;18.40;99.90;;;;;;6154640;23;20006;-82
2023/05/22 03:14:47;;;;;;;16.80;14.63;;;18.30;99.90;;;;;;6105875;23;20013;-82
2023/05/22 03:17:13;;;;;;;15.50;13.90;;;18.30;99.90;;;;;;6129386;23;20328;-82
2023/05/22 03:19:38;;;;;;;16.38;13.98;;;18.30;99.90;;;;;;6154453;23;20002;-81
2023/05/22 03:22:05;;;;;;;16.95;14.10;;;18.30;99.90;;;;;;6129898;23;20064;-82
2023/05/22 03:24:31;;;;;;;16.38;14.05;;;18.20;99.90;;;;;;6129941;23;20060;-82
2023/05/22 03:26:58;;;;;;;19.70;14.85;;;18.20;99.90;;;;;;6154259;23;20397;-82
2023/05/22 03:29:25;;;;;;;18.05;15.15;;;18.20;99.90;;;;;;6129780;23;20005;-82
2023/05/22 03:31:51;;;;;;;18.05;14.35;;;18.20;99.90;;;;;;6154027;23;20021;-82
2023/05/22 03:34:17;;;;;;;15.95;13.70;;;18.20;99.90;;;;;;6154275;23;20361;-81
2023/05/22 03:36:43;;;;;;;15.52;13.63;;;18.10;99.90;;;;;;6129516;23;20199;-82
2023/05/22 03:39:09;;;;;;;16.42;14.68;;;18.10;99.90;;;;;;6129846;23;20010;-82
2023/05/22 03:41:35;;;;;;;16.58;14.20;;;18.10;99.90;;;;;;6129030;23;20020;-82
2023/05/22 03:44:02;;;;;;;17.85;13.95;;;18.00;99.90;;;;;;6129822;23;20056;-82
2023/05/22 03:46:28;;;;;;;15.68;13.70;;;18.00;99.90;;;;;;6153516;23;20454;-82
2023/05/22 03:48:53;;;;;;;19.08;14.18;;;18.00;99.90;;;;;;6154015;23;20001;-82
2023/05/22 03:51:19;;;;;;;17.63;15.05;;;18.00;99.90;;;;;;6154041;23;20006;-82
2023/05/22 03:53:44;;;;;;;16.75;14.13;;;17.90;99.90;;;;;;6105145;23;20100;-82
2023/05/22 03:56:10;;;;;;;17.77;14.75;;;17.90;99.90;;;;;;6154189;23;20029;-82
2023/05/22 03:58:36;;;;;;;16.50;14.80;;;17.90;99.90;;;;;;6155570;23;20033;-82
2023/05/22 04:01:02;;;;;;;18.60;14.55;;;17.80;99.90;;;;;;6129680;23;20089;-82
2023/05/22 04:03:27;;;;;;;17.58;14.65;;;17.80;99.90;;;;;;6154189;23;20036;-82
2023/05/22 04:05:53;;;;;;;19.58;15.02;;;17.80;99.90;;;;;;6154434;23;20312;-82
2023/05/22 04:08:19;;;;;;;16.43;14.43;;;17.80;99.90;;;;;;6080934;23;1133502;-82
2023/05/22 04:10:47;;;;;;;18.00;14.85;;;17.70;99.90;;;;;;6155290;23;20025;-83
2023/05/22 04:13:14;;;;;;;18.00;15.07;;;17.80;99.90;;;;;;6131467;23;20018;-82
2023/05/22 04:15:42;;;;;;;18.05;16.02;;;17.70;99.90;;;;;;6155351;23;20336;-82
2023/05/22 04:18:08;;;;;;;19.20;15.75;;;17.70;99.90;;;;;;6131508;23;20367;-82
2023/05/22 04:20:33;;;;;;;19.48;16.10;;;17.70;99.90;;;;;;6155469;23;20005;-81
2023/05/22 04:22:59;;;;;;;16.33;14.57;;;17.70;99.90;;;;;;6130510;23;20331;-83
2023/05/22 04:25:25;;;;;;;17.58;15.70;;;17.70;99.90;;;;;;6131177;23;20016;-81
2023/05/22 04:27:51;;;;;;;19.05;16.50;;;17.60;99.90;;;;;;6130786;23;20365;-81
2023/05/22 05:17:50;;;;;;;19.77;14.85;;;16.30;99.90;;;;;;5090659;28;20473;-83
2023/05/22 05:20:16;;;;;;;23.17;17.90;;;16.20;99.90;;;;;;5073125;28;20043;-83
2023/05/22 05:22:42;;;;;;;25.65;18.50;;;16.20;99.90;;;;;;5089577;28;20029;-83
2023/05/22 05:25:08;;;;;;;23.88;18.77;;;16.20;99.90;;;;;;5091218;28;20016;-83
2023/05/22 05:27:34;;;;;;;21.55;18.25;;;16.30;99.90;;;;;;5072745;28;20456;-83
2023/05/22 05:30:00;;;;;;;22.30;18.67;;;16.30;99.90;;;;;;5089384;28;20060;-84
2023/05/22 05:32:26;;;;;;;20.83;18.23;;;16.40;99.90;;;;;;5089568;28;20111;-84
2023/05/22 05:34:52;;;;;;;18.90;16.35;;;16.50;99.90;;;;;;5089188;28;20047;-84
2023/05/22 05:37:17;;;;;;;18.17;16.23;;;16.60;99.90;;;;;;5090710;28;20024;-84
2023/05/22 05:39:43;;;;;;;16.90;15.15;;;16.70;99.90;;;;;;5089266;28;20074;-83
2023/05/22 05:42:09;;;;;;;16.85;15.15;;;16.70;99.90;;;;;;5073586;28;20082;-84
2023/05/22 05:44:34;;;;;;;16.73;15.13;;;16.80;99.90;;;;;;5091393;28;20020;-83
2023/05/22 05:47:00;;;;;;;15.95;14.45;;;16.90;99.90;;;;;;5086802;28;20112;-84
2023/05/22 05:49:26;;;;;;;17.08;15.32;;;17.00;99.90;;;;;;5130765;27;20004;-84
2023/05/22 05:51:52;;;;;;;16.45;14.85;;;17.10;99.90;;;;;;5097604;28;20012;-85
2023/05/22 05:54:18;;;;;;;16.67;14.98;;;17.20;99.90;;;;;;5097504;28;20011;-84
2023/05/22 05:56:43;;;;;;;16.27;14.68;;;17.30;99.90;;;;;;5109446;28;20097;-84
2023/05/22 05:59:09;;;;;;;17.75;16.05;;;17.30;99.90;;;;;;5098747;28;20020;-87
2023/05/22 06:01:36;;;;;;;16.13;14.55;;;17.40;99.90;;;;;;5090779;28;20024;-86
2023/05/22 06:04:02;;;;;;;18.25;16.35;;;17.40;99.90;;;;;;5091718;28;20048;-87
2023/05/22 06:06:34;;;;;;;16.77;15.18;;;17.50;99.90;;;;;;5089896;28;20036;-87
2023/05/22 06:09:00;;;;;;;16.75;15.15;;;17.50;99.90;;;;;;5091311;28;20418;-86
2023/05/22 06:11:26;;;;;;;19.10;16.58;;;17.50;99.90;;;;;;5090311;28;20404;-86
2023/05/22 06:13:51;;;;;;;18.08;16.25;;;17.50;99.90;;;;;;5072309;28;20024;-86
2023/05/22 06:16:17;;;;;;;17.65;15.95;;;17.50;99.90;;;;;;5071498;28;20040;-87
2023/05/22 06:18:45;;;;;;;17.95;16.15;;;17.60;99.90;;;;;;5089161;28;20032;-87
2023/05/22 06:21:10;;;;;;;18.55;16.75;;;17.60;99.90;;;;;;5089924;28;20066;-86
2023/05/22 06:23:36;;;;;;;16.55;14.95;;;17.60;99.90;;;;;;5090097;28;20055;-87
2023/05/22 06:26:02;;;;;;;17.20;15.00;;;17.70;99.90;;;;;;5071555;28;20127;-87
2023/05/22 06:28:27;;;;;;;16.15;14.55;;;17.70;99.90;;;;;;5062745;28;20025;-86
2023/05/22 06:30:53;;;;;;;18.33;16.52;;;17.80;99.90;;;;;;5058222;28;20484;-86
2023/05/22 06:33:19;;;;;;;18.15;16.25;;;17.80;99.90;;;;;;5075006;28;20032;-86
2023/05/22 06:35:44;;;;;;;17.17;15.50;;;17.80;99.90;;;;;;5057804;28;20043;-86
2023/05/22 06:38:10;;;;;;;16.70;15.05;;;17.90;99.90;;;;;;5058379;28;20098;-86
2023/05/22 06:40:36;;;;;;;16.63;15.02;;;18.00;99.90;;;;;;5092060;28;20060;-86
2023/05/22 06:43:01;;;;;;;16.60;14.90;;;18.10;99.90;;;;;;5075608;28;20036;-85
2023/05/22 06:45:27;;;;;;;18.45;16.55;;;18.20;99.90;;;;;;5091265;28;20099;-85
2023/05/22 06:47:53;;;;;;;17.65;15.93;;;18.20;99.90;;;;;;5057943;28;20423;-86
2023/05/22 06:50:19;;;;;;;17.17;15.52;;;18.30;99.90;;;;;;5058134;28;20032;-85
2023/05/22 06:52:45;;;;;;;16.17;14.52;;;18.40;99.90;;;;;;5074288;28;20034;-85
2023/05/22 06:55:11;;;;;;;16.67;15.00;;;18.40;99.90;;;;;;5058239;28;20021;-86
2023/05/22 06:57:36;;;;;;;16.52;14.93;;;18.50;99.90;;;;;;5057795;28;20042;-86
2023/05/22 07:00:08;;;;;;;17.23;15.60;;;18.60;99.90;;;;;;5057634;28;20062;-86
2023/05/22 07:02:34;;;;;;;15.23;13.82;;;18.60;99.90;;;;;;5058371;28;20025;-85
2023/05/22 07:05:00;;;;;;;17.30;15.68;;;18.70;99.90;;;;;;5074121;28;20036;-86
2023/05/22 07:07:25;;;;;;;16.77;15.07;;;18.80;99.90;;;;;;5074088;28;20028;-86
2023/05/22 07:09:51;;;;;;;16.90;15.30;;;18.80;99.90;;;;;;5074191;28;20029;-86
2023/05/22 07:12:16;;;;;;;15.30;13.80;;;18.90;99.90;;;;;;5074266;28;20028;-86
2023/05/22 07:14:42;;;;;;;15.55;14.05;;;19.00;99.90;;;;;;5074414;28;20350;-86
2023/05/22 07:17:08;;;;;;;15.25;13.68;;;19.10;99.90;;;;;;5090736;28;20118;-86
2023/05/22 07:19:34;;;;;;;15.23;13.82;;;19.10;99.90;;;;;;5074297;28;20024;-86
2023/05/22 07:22:00;;;;;;;15.10;13.63;;;19.20;99.90;;;;;;5075507;28;20104;-86
2023/05/22 07:24:26;;;;;;;15.30;13.80;;;19.30;99.90;;;;;;5057768;28;20123;-87
2023/05/22 07:26:54;;;;;;;15.43;14.02;;;19.40;99.90;;;;;;5090711;28;20025;-91
2023/05/22 07:29:20;;;;;;;15.52;13.93;;;19.40;99.90;;;;;;5074552;28;20024;-87
2023/05/22 07:31:46;;;;;;;14.93;13.52;;;19.50;99.90;;;;;;5057521;28;20086;-87
2023/05/22 07:34:15;;;;;;;14.18;12.77;;;19.60;99.90;;;;;;5074042;28;20032;-88
2023/05/22 07:36:43;;;;;;;14.82;13.43;;;19.60;99.90;;;;;;5079956;28;20028;-87
2023/05/22 07:39:09;;;;;;;14.70;13.30;;;19.70;99.90;;;;;;5080481;28;20029;-86
2023/05/22 07:41:35;;;;;;;14.38;12.88;;;19.80;99.90;;;;;;5098652;28;20009;-87
2023/05/22 07:44:00;;;;;;;15.80;14.25;;;19.90;99.90;;;;;;5098482;28;20048;-86
2023/05/22 07:46:26;;;;;;;15.07;13.60;;;20.00;99.90;;;;;;5098757;28;20004;-86
2023/05/22 07:48:52;;;;;;;13.60;12.32;;;20.00;99.90;;;;;;5097885;28;20036;-86
2023/05/22 07:51:17;;;;;;;14.15;12.70;;;20.10;99.90;;;;;;5081020;28;20009;-86
2023/05/22 07:53:43;;;;;;;14.63;13.23;;;20.20;99.90;;;;;;5086284;28;20028;-87
2023/05/22 07:56:10;;;;;;;14.70;13.20;;;20.20;99.90;;;;;;5073078;28;20032;-87
2023/05/22 07:58:35;;;;;;;14.63;13.13;;;20.30;99.90;;;;;;5073343;28;20085;-87
2023/05/22 08:01:03;;;;;;;15.00;13.55;;;20.40;99.90;;;;;;5074367;28;20099;-87
2023/05/22 08:03:29;;;;;;;13.75;12.35;;;20.40;99.90;;;;;;5090377;28;20052;-87
2023/05/22 08:05:55;;;;;;;15.35;13.75;;;20.50;99.90;;;;;;5072962;28;20036;-87
2023/05/22 08:08:21;;;;;;;14.73;13.25;;;20.60;99.90;;;;;;5056569;28;20029;-88
2023/05/22 08:10:47;;;;;;;13.75;12.45;;;20.70;99.90;;;;;;5073252;28;20021;-87
2023/05/22 08:13:15;;;;;;;13.60;12.30;;;20.70;99.90;;;;;;5072845;28;20028;-87
2023/05/22 08:15:44;;;;;;;14.48;13.13;;;20.70;99.90;;;;;;5074225;28;20028;-87
2023/05/22 08:18:10;;;;;;;13.43;12.13;;;20.80;99.90;;;;;;5072405;28;20040;-87
2023/05/22 08:20:37;;;;;;;13.25;11.85;;;20.90;99.90;;;;;;5073775;28;20541;-88
2023/05/22 08:23:02;;;;;;;13.57;12.18;;;21.00;99.90;;;;;;5072819;28;20496;-87
2023/05/22 08:25:28;;;;;;;14.13;12.73;;;21.00;99.90;;;;;;5073199;28;20029;-87
2023/05/22 08:27:54;;;;;;;14.05;12.52;;;21.10;99.90;;;;;;5055937;28;20036;-86
2023/05/22 08:30:19;;;;;;;14.32;12.90;;;21.10;99.90;;;;;;5089666;28;20028;-87
2023/05/22 08:32:45;;;;;;;12.98;11.77;;;21.20;99.90;;;;;;5072622;28;20064;-87
2023/05/22 08:35:13;;;;;;;13.27;11.98;;;21.30;99.90;;;;;;5055788;28;20021;-87
2023/05/22 08:37:38;;;;;;;13.40;12.10;;;21.30;99.90;;;;;;5056290;28;20123;-87
2023/05/22 08:40:05;;;;;;;12.77;11.57;;;21.40;99.90;;;;;;5056240;28;20056;-87
2023/05/22 08:42:31;;;;;;;14.07;12.63;;;21.40;99.90;;;;;;5072438;28;20498;-87
2023/05/22 08:44:59;;;;;;;14.32;12.75;;;21.50;99.90;;;;;;5089321;28;20063;-87
2023/05/22 08:47:25;;;;;;;15.82;14.32;;;21.50;99.90;;;;;;5072564;28;20368;-87
2023/05/22 08:49:53;;;;;;;15.77;14.20;;;21.60;99.90;;;;;;5072381;28;20028;-87
2023/05/22 08:52:31;;;;;;;13.40;12.10;;;21.60;99.90;;;;;;5055420;28;20162;-87
2023/05/22 08:54:58;;;;;;;13.77;12.30;;;21.70;99.90;;;;;;5072297;28;20021;-87
2023/05/22 08:57:24;;;;;;;13.43;12.23;;;21.70;99.90;;;;;;5089133;28;20043;-87
2023/05/22 08:59:51;;;;;;;15.05;13.65;;;21.70;99.90;;;;;;5072313;28;20039;-87
2023/05/22 09:02:18;;;;;;;15.23;13.68;;;21.80;99.90;;;;;;5074284;28;20032;-87
2023/05/22 09:04:44;;;;;;;14.65;13.25;;;21.80;99.90;;;;;;5072494;28;20032;-87
2023/05/22 09:07:10;;;;;;;16.77;15.07;;;21.90;99.90;;;;;;5073315;28;20058;-86
2023/05/22 09:09:36;;;;;;;15.73;14.23;;;21.90;99.90;;;;;;5089847;28;20036;-86
2023/05/22 09:12:05;;;;;;;16.25;14.52;;;21.90;99.90;;;;;;5073006;28;20468;-86
2023/05/22 09:14:38;;;;;;;14.35;12.90;;;22.00;99.90;;;;;;5072786;28;20025;-87
2023/05/22 09:17:04;;;;;;;14.23;12.93;;;22.00;99.90;;;;;;5074018;28;20075;-86
2023/05/22 09:19:30;;;;;;;12.60;11.40;;;22.10;99.90;;;;;;5073803;28;20056;-86
2023/05/22 09:22:05;;;;;;;13.13;11.88;;;22.20;99.90;;;;;;5073535;28;20471;-87
2023/05/22 09:24:36;;;;;;;13.85;12.52;;;22.30;99.90;;;;;;5072120;28;20025;-86
2023/05/22 09:27:05;;;;;;;14.07;12.68;;;22.30;99.90;;;;;;5071956;28;20039;-87
2023/05/22 09:29:31;;;;;;;12.77;11.68;;;22.40;99.90;;;;;;5072097;28;20078;-87
2023/05/22 09:31:58;;;;;;;13.35;12.00;;;22.50;99.90;;;;;;5090397;28;20025;-87
2023/05/22 09:34:28;;;;;;;12.95;11.65;;;22.60;99.90;;;;;;5089533;28;20041;-86
2023/05/22 09:37:02;;;;;;;14.80;12.40;;;22.60;99.90;;;;;;5097168;28;20024;-86
2023/05/22 09:39:42;;;;;;;12.65;11.35;;;22.70;99.90;;;;;;5097664;28;20023;-85
2023/05/22 09:42:10;;;;;;;14.50;13.10;;;22.70;99.90;;;;;;5097282;28;20009;-86
2023/05/22 09:44:36;;;;;;;14.73;13.32;;;22.70;99.90;;;;;;5097041;28;20079;-87
2023/05/22 09:47:03;;;;;;;16.00;13.90;;;22.80;99.90;;;;;;5079548;28;20125;-86
2023/05/22 09:49:29;;;;;;;16.60;15.00;;;22.80;99.90;;;;;;5057403;28;20025;-87
2023/05/22 09:51:56;;;;;;;16.17;14.60;;;22.80;99.90;;;;;;5073087;28;20051;-87
2023/05/22 09:54:25;;;;;;;15.68;14.18;;;22.80;99.90;;;;;;5072463;28;20040;-87
2023/05/22 09:56:54;;;;;;;14.55;13.15;;;22.90;99.90;;;;;;5073539;28;20032;-87
2023/05/22 09:59:25;;;;;;;14.67;13.27;;;22.90;99.90;;;;;;5072193;28;20028;-88
2023/05/22 10:01:52;;;;;;;13.23;11.93;;;23.00;99.90;;;;;;5056916;28;20124;-87
2023/05/22 10:04:20;;;;;;;13.23;11.93;;;23.00;99.90;;;;;;5059299;28;20032;-88
2023/05/22 10:06:50;;;;;;;13.60;12.30;;;23.10;99.90;;;;;;5059414;28;20075;-87
2023/05/22 10:09:17;;;;;;;12.90;11.70;;;23.20;99.90;;;;;;5075360;28;20070;-88
2023/05/22 10:11:44;;;;;;;14.48;12.98;;;23.30;99.90;;;;;;5075541;28;20036;-86
2023/05/22 10:14:11;;;;;;;14.07;12.77;;;23.30;99.90;;;;;;5075287;28;20548;-86
2023/05/22 10:16:37;;;;;;;14.05;12.55;;;23.40;99.90;;;;;;5092519;28;20127;-87
2023/05/22 10:19:04;;;;;;;14.57;13.07;;;23.40;99.90;;;;;;5075678;28;20064;-87
2023/05/22 10:21:31;;;;;;;13.93;12.70;;;23.50;99.90;;;;;;5092579;28;20057;-87
2023/05/22 10:23:59;;;;;;;14.95;13.55;;;23.50;99.90;;;;;;5059025;28;20486;-87
2023/05/22 10:26:27;;;;;;;14.02;12.40;;;23.60;99.90;;;;;;5076336;28;20391;-87
2023/05/22 10:29:10;;;;;;;12.90;11.70;;;23.60;99.90;;;;;;5075200;28;20082;-87
2023/05/22 10:31:44;;;;;;;13.85;12.45;;;23.60;99.90;;;;;;5075465;28;20380;-87
2023/05/22 10:34:16;;;;;;;15.77;14.00;;;23.70;99.90;;;;;;5074917;28;20029;-87
2023/05/22 10:37:00;;;;;;;16.08;14.52;;;23.80;99.90;;;;;;5075144;28;20391;-87
2023/05/22 10:40:01;;;;;;;14.60;13.10;;;23.90;99.90;;;;;;5074986;28;20025;-87
2023/05/22 10:42:33;;;;;;;14.10;12.63;;;23.90;99.90;;;;;;5074975;28;20101;-87
2023/05/22 10:45:03;;;;;;;14.23;12.82;;;23.90;99.90;;;;;;5074929;28;20021;-87
2023/05/22 10:47:28;;;;;;;14.48;13.18;;;24.10;99.90;;;;;;5074867;28;20025;-87
2023/05/22 10:50:07;;;;;;;14.88;13.38;;;24.10;99.90;;;;;;5076096;28;20024;-88
2023/05/22 10:52:34;;;;;;;15.02;13.55;;;24.10;99.90;;;;;;5076231;28;20024;-87
2023/05/22 10:55:00;;;;;;;13.98;12.63;;;24.20;99.90;;;;;;5058330;28;20519;-87
2023/05/22 10:57:31;;;;;;;14.07;12.70;;;24.20;99.90;;;;;;5075671;28;20116;-87
2023/05/22 11:00:10;;;;;;;;;;;24.20;99.90;;;;;;5075163;28;20021;-87
2023/05/22 11:02:39;;;;;;;12.38;11.27;;;24.30;99.90;;;;;;5075960;28;19912;-87
2023/05/22 11:05:20;;;;;;;13.73;12.30;;;24.30;99.90;;;;;;5075823;28;20021;-87
2023/05/22 11:07:46;;;;;;;14.52;13.02;;;24.40;99.90;;;;;;5074801;28;20052;-87
2023/05/22 11:10:12;;;;;;;16.23;14.52;;;24.40;99.90;;;;;;5074235;28;20024;-87
2023/05/22 11:12:40;;;;;;;16.52;14.82;;;24.40;99.90;;;;;;5074333;28;20024;-87
2023/05/22 11:15:10;;;;;;;19.00;16.20;;;24.50;99.90;;;;;;5057967;28;20020;-87
2023/05/22 11:17:41;;;;;;;18.48;16.58;;;24.50;99.90;;;;;;5073924;28;20044;-88
2023/05/22 11:20:19;;;;;;;16.42;14.73;;;24.50;99.90;;;;;;5057699;28;20025;-87
2023/05/22 11:23:05;;;;;;;16.88;15.27;;;24.60;99.90;;;;;;5075686;28;20074;-86
2023/05/22 11:25:34;;;;;;;17.13;15.38;;;24.60;99.90;;;;;;5073955;28;20455;-87
2023/05/22 11:28:02;;;;;;;17.02;15.32;;;24.70;99.90;;;;;;5074148;28;20021;-87
2023/05/22 11:30:31;;;;;;;16.67;15.02;;;24.70;99.90;;;;;;5073923;28;20021;-87
2023/05/22 11:32:58;;;;;;;16.80;15.10;;;24.70;99.90;;;;;;5058136;28;20035;-88
2023/05/22 11:35:24;;;;;;;17.13;15.32;;;24.80;99.90;;;;;;5092049;28;20028;-87
2023/05/22 11:37:52;;;;;;;16.52;14.82;;;24.70;99.90;;;;;;5088728;28;20032;-87
2023/05/22 11:40:25;;;;;;;17.65;15.85;;;24.80;99.90;;;;;;5082077;28;20064;-86
2023/05/22 11:42:55;;;;;;;17.38;15.52;;;24.80;99.90;;;;;;5099076;28;20048;-87
2023/05/22 11:45:20;;;;;;;16.38;14.65;;;24.90;99.90;;;;;;5099204;28;20024;-87
2023/05/22 11:47:47;;;;;;;17.67;15.30;;;24.90;99.90;;;;;;5098645;28;20038;-88
2023/05/22 11:50:17;;;;;;;16.73;15.13;;;25.10;99.90;;;;;;5079876;28;20405;-86
2023/05/22 11:52:42;;;;;;;16.90;15.30;;;25.10;99.90;;;;;;5074065;28;20550;-88
2023/05/22 11:55:10;;;;;;;16.58;14.80;;;25.20;99.90;;;;;;5074259;28;20267;-88
2023/05/22 11:57:36;;;;;;;17.60;15.90;;;25.20;99.90;;;;;;5057051;28;20032;-88
2023/05/22 12:00:07;;;;;;;16.77;15.07;;;25.10;99.90;;;;;;5073680;28;20033;-87
2023/05/22 12:02:33;;;;;;;17.33;15.60;;;25.10;99.90;;;;;;5073342;28;20115;-88
2023/05/22 12:04:59;;;;;;;16.55;14.80;;;25.10;99.90;;;;;;5073610;28;20426;-87
2023/05/22 12:07:26;;;;;;;16.45;14.77;;;25.10;99.90;;;;;;5073180;28;20033;-87
2023/05/22 12:09:54;;;;;;;13.45;12.18;;;25.10;99.90;;;;;;5090682;28;20028;-87
2023/05/22 12:12:20;;;;;;;12.90;11.63;;;25.00;99.90;;;;;;5056984;28;20033;-87
2023/05/22 12:14:47;;;;;;;13.23;11.95;;;25.00;99.90;;;;;;5072937;28;20452;-87
2023/05/22 12:17:18;;;;;;;13.07;11.68;;;25.00;99.90;;;;;;5073919;28;20114;-87
2023/05/22 12:19:45;;;;;;;12.32;11.13;;;25.00;99.70;;;;;;5057271;28;20044;-87
2023/05/22 12:22:12;;;;;;;14.20;12.80;;;25.10;99.70;;;;;;5056756;28;20040;-87
2023/05/22 12:24:44;;;;;;;16.40;14.80;;;25.10;99.70;;;;;;5072888;28;20071;-86
2023/05/22 12:27:12;;;;;;;13.60;12.23;;;25.10;99.70;;;;;;5072707;28;20024;-87
2023/05/22 12:29:39;;;;;;;14.25;12.93;;;25.20;99.80;;;;;;5072726;28;20112;-86
2023/05/22 12:32:08;;;;;;;14.52;13.05;;;25.20;99.70;;;;;;5072889;28;20036;-87
2023/05/22 12:34:40;;;;;;;14.13;12.45;;;25.30;99.80;;;;;;5074167;28;20025;-87
2023/05/22 12:37:24;;;;;;;14.48;13.00;;;25.40;99.70;;;;;;5072771;28;20448;-87
2023/05/22 12:40:03;;;;;;;15.32;13.82;;;25.40;99.60;;;;;;5072988;28;20033;-86
2023/05/22 12:42:29;;;;;;;14.05;12.65;;;25.40;99.60;;;;;;5072400;28;20024;-87
2023/05/22 12:44:56;;;;;;;13.68;12.25;;;25.40;99.30;;;;;;5074045;28;20029;-87
2023/05/22 12:47:23;;;;;;;14.25;12.88;;;25.40;99.30;;;;;;5072457;28;20376;-87
2023/05/22 12:49:49;;;;;;;13.50;12.00;;;25.30;99.30;;;;;;5072747;28;20025;-87
2023/05/22 12:52:15;;;;;;;14.18;11.98;;;25.30;99.20;;;;;;5072654;28;20032;-87
2023/05/22 12:54:41;;;;;;;14.05;12.32;;;25.30;99.20;;;;;;5073656;28;20029;-87
2023/05/22 12:57:07;;;;;;;12.60;11.38;;;25.30;99.20;;;;;;5072586;28;20047;-86
2023/05/22 12:59:33;;;;;;;12.02;10.82;;;25.30;99.10;;;;;;5072331;28;20468;-87
2023/05/22 13:02:01;;;;;;;12.50;11.32;;;25.40;99.10;;;;;;5072720;28;20131;-87
2023/05/22 13:04:29;;;;;;;12.55;11.25;;;25.40;98.80;;;;;;5055792;28;20029;-86
2023/05/22 13:06:55;;;;;;;12.10;10.88;;;25.50;98.70;;;;;;5056560;28;20032;-87
2023/05/22 13:09:21;;;;;;;14.93;13.43;;;25.50;98.70;;;;;;5072168;28;20480;-86
2023/05/22 13:11:47;;;;;;;14.00;12.60;;;25.50;98.60;;;;;;5072790;28;20016;-87
2023/05/22 13:14:14;;;;;;;15.00;13.50;;;25.50;98.50;;;;;;5073703;28;20025;-86
2023/05/22 13:16:40;;;;;;;14.05;12.70;;;25.50;98.60;;;;;;5072298;28;20017;-86
2023/05/22 13:19:06;;;;;;;14.18;12.60;;;25.50;98.60;;;;;;5072849;28;20035;-87